createdAt,value
2018-12-09T00:00:14.111Z,8.90
2018-12-09T00:02:42.484Z,9.00
2018-12-09T00:05:10.867Z,9.00
2018-12-09T00:07:39.285Z,9.00
2018-12-09T00:10:07.749Z,9.10
2018-12-09T00:12:36.689Z,9.20
2018-12-09T00:15:05.307Z,9.30
2018-12-09T00:17:33.733Z,9.20
2018-12-09T00:20:02.128Z,9.20
2018-12-09T00:22:30.821Z,9.10
2018-12-09T00:24:59.293Z,9.10
2018-12-09T00:27:27.664Z,9.10
2018-12-09T00:29:55.990Z,9.00
2018-12-09T00:32:24.437Z,9.10
2018-12-09T00:34:52.808Z,9.00
2018-12-09T00:37:21.216Z,9.00
2018-12-09T00:39:49.675Z,9.00
2018-12-09T00:42:18.071Z,9.10
2018-12-09T00:44:46.481Z,9.10
2018-12-09T00:47:14.886Z,9.10
2018-12-09T00:49:43.340Z,9.10
2018-12-09T00:52:11.688Z,9.10
2018-12-09T00:54:40.032Z,9.10
2018-12-09T00:57:08.657Z,9.10
2018-12-09T00:59:37.060Z,9.10
2018-12-09T01:02:09.341Z,9.20
2018-12-09T01:04:37.767Z,9.10
2018-12-09T01:07:06.289Z,9.20
2018-12-09T01:09:34.938Z,9.20
2018-12-09T01:12:03.478Z,9.20
2018-12-09T01:14:32.876Z,9.40
2018-12-09T01:17:01.452Z,9.40
2018-12-09T01:19:30.094Z,9.40
2018-12-09T01:21:58.511Z,9.40
2018-12-09T01:24:26.888Z,9.40
2018-12-09T01:26:55.268Z,9.40
2018-12-09T01:29:23.631Z,9.50
2018-12-09T01:31:52.076Z,9.60
2018-12-09T01:34:20.441Z,9.50
2018-12-09T01:36:48.885Z,9.60
2018-12-09T01:39:17.335Z,9.50
2018-12-09T01:41:45.839Z,9.60
2018-12-09T01:44:14.302Z,9.60
2018-12-09T01:46:42.687Z,9.60
2018-12-09T01:49:11.132Z,9.60
2018-12-09T01:51:39.541Z,9.50
2018-12-09T01:54:10.522Z,9.50
2018-12-09T01:56:40.296Z,9.40
2018-12-09T01:59:08.735Z,9.30
2018-12-09T02:01:37.848Z,9.20
2018-12-09T02:04:06.641Z,9.10
2018-12-09T02:06:35.337Z,9.00
2018-12-09T02:09:05.442Z,9.00
2018-12-09T02:11:33.915Z,8.90
2018-12-09T02:14:02.236Z,8.90
2018-12-09T02:16:31.016Z,8.80
2018-12-09T02:19:11.131Z,8.80
2018-12-09T02:21:39.724Z,8.80
2018-12-09T02:24:08.364Z,8.80
2018-12-09T02:26:37.020Z,8.80
2018-12-09T02:29:05.480Z,8.70
2018-12-09T02:31:34.037Z,8.80
2018-12-09T02:34:02.674Z,8.80
2018-12-09T02:36:31.300Z,8.80
2018-12-09T02:38:59.764Z,8.80
2018-12-09T02:41:28.216Z,8.80
2018-12-09T02:43:56.902Z,8.80
2018-12-09T02:46:25.400Z,8.90
2018-12-09T02:48:53.751Z,9.00
2018-12-09T02:51:22.341Z,9.00
2018-12-09T02:53:50.933Z,9.10
2018-12-09T02:56:19.346Z,9.10
2018-12-09T02:58:47.940Z,9.10
2018-12-09T03:01:16.454Z,9.10
2018-12-09T03:03:44.949Z,9.10
2018-12-09T03:06:13.591Z,9.10
2018-12-09T03:08:42.048Z,9.00
2018-12-09T03:11:10.463Z,9.00
2018-12-09T03:13:38.911Z,8.90
2018-12-09T03:16:07.334Z,8.90
2018-12-09T03:18:36.360Z,8.80
2018-12-09T03:21:04.784Z,8.80
2018-12-09T03:23:33.252Z,8.80
2018-12-09T03:26:01.670Z,8.80
2018-12-09T03:28:30.602Z,8.80
2018-12-09T03:30:59.180Z,8.70
2018-12-09T03:33:27.934Z,8.70
2018-12-09T03:35:56.538Z,8.70
2018-12-09T03:38:24.889Z,8.60
2018-12-09T03:40:53.356Z,8.60
2018-12-09T03:43:21.739Z,8.60
2018-12-09T03:45:50.138Z,8.60
2018-12-09T03:48:18.691Z,8.60
2018-12-09T03:50:47.152Z,8.60
2018-12-09T03:53:15.716Z,8.60
2018-12-09T03:55:45.609Z,8.60
2018-12-09T03:58:13.959Z,8.60
2018-12-09T04:00:42.436Z,8.50
2018-12-09T04:03:10.803Z,8.50
2018-12-09T04:05:39.223Z,8.50
2018-12-09T04:08:07.936Z,8.50
2018-12-09T04:10:36.392Z,8.50
2018-12-09T04:13:04.869Z,8.50
2018-12-09T04:15:37.501Z,8.50
2018-12-09T04:18:06.133Z,8.50
2018-12-09T04:20:34.544Z,8.50
2018-12-09T04:23:02.971Z,8.50
2018-12-09T04:25:31.301Z,8.50
2018-12-09T04:28:00.400Z,8.50
2018-12-09T04:30:29.060Z,8.50
2018-12-09T04:32:57.435Z,8.30
2018-12-09T04:35:25.869Z,8.20
2018-12-09T04:37:54.325Z,8.10
2018-12-09T04:40:22.792Z,8.00
2018-12-09T04:42:51.273Z,8.00
2018-12-09T04:45:19.835Z,8.00
2018-12-09T04:47:48.297Z,8.00
2018-12-09T04:50:16.767Z,8.00
2018-12-09T04:52:45.876Z,8.00
2018-12-09T04:55:14.422Z,8.00
2018-12-09T04:57:42.749Z,8.00
2018-12-09T05:00:22.663Z,8.00
2018-12-09T05:02:51.496Z,8.00
2018-12-09T05:05:19.868Z,7.90
2018-12-09T05:07:53.172Z,7.90
2018-12-09T05:10:21.599Z,7.90
2018-12-09T05:12:49.940Z,8.00
2018-12-09T05:15:18.391Z,7.90
2018-12-09T05:17:47.026Z,7.90
2018-12-09T05:20:15.400Z,7.90
2018-12-09T05:22:43.767Z,7.90
2018-12-09T05:25:12.288Z,7.90
2018-12-09T05:27:40.724Z,7.90
2018-12-09T05:30:09.266Z,8.00
2018-12-09T05:32:37.656Z,8.00
2018-12-09T05:35:06.217Z,8.10
2018-12-09T05:37:35.461Z,8.10
2018-12-09T05:40:04.181Z,8.10
2018-12-09T05:42:32.577Z,8.00
2018-12-09T05:45:01.012Z,8.00
2018-12-09T05:47:29.447Z,8.00
2018-12-09T05:49:57.885Z,8.00
2018-12-09T05:52:26.371Z,8.10
2018-12-09T05:54:54.865Z,8.10
2018-12-09T05:57:23.236Z,8.00
2018-12-09T05:59:51.701Z,8.00
2018-12-09T06:02:31.371Z,7.90
2018-12-09T06:04:59.711Z,7.80
2018-12-09T06:07:28.152Z,7.80
2018-12-09T06:09:56.592Z,7.80
2018-12-09T06:12:25.045Z,7.80
2018-12-09T06:14:53.582Z,7.80
2018-12-09T06:17:22.096Z,7.80
2018-12-09T06:19:50.450Z,7.80
2018-12-09T06:22:18.940Z,7.80
2018-12-09T06:24:47.776Z,7.80
2018-12-09T06:27:16.199Z,7.80
2018-12-09T06:29:44.593Z,7.90
2018-12-09T06:32:12.954Z,7.90
2018-12-09T06:34:41.482Z,7.90
2018-12-09T06:37:09.838Z,7.90
2018-12-09T06:39:38.209Z,7.90
2018-12-09T06:42:07.503Z,8.00
2018-12-09T06:44:35.920Z,8.00
2018-12-09T06:47:04.828Z,8.00
2018-12-09T06:49:33.486Z,8.00
2018-12-09T06:52:01.944Z,8.00
2018-12-09T06:54:30.390Z,8.00
2018-12-09T06:56:58.825Z,8.00
2018-12-09T06:59:27.672Z,8.00
2018-12-09T07:01:56.117Z,8.00
2018-12-09T07:04:24.519Z,8.10
2018-12-09T07:06:53.308Z,8.20
2018-12-09T07:09:21.736Z,8.20
2018-12-09T07:11:50.511Z,8.20
2018-12-09T07:14:18.959Z,8.20
2018-12-09T07:16:47.513Z,8.20
2018-12-09T07:19:15.884Z,8.20
2018-12-09T07:21:44.344Z,8.20
2018-12-09T07:24:13.401Z,8.30
2018-12-09T07:26:41.827Z,8.30
2018-12-09T07:29:10.269Z,8.30
2018-12-09T07:31:38.739Z,8.30
2018-12-09T07:34:11.116Z,8.30
2018-12-09T07:36:39.572Z,8.20
2018-12-09T07:39:08.046Z,8.30
2018-12-09T07:41:36.460Z,8.30
2018-12-09T07:44:05.063Z,8.20
2018-12-09T07:46:33.531Z,8.20
2018-12-09T07:49:02.025Z,8.20
2018-12-09T07:51:30.566Z,8.20
2018-12-09T07:53:58.946Z,8.20
2018-12-09T07:56:27.360Z,8.20
2018-12-09T07:58:55.900Z,8.30
2018-12-09T08:01:24.423Z,8.40
2018-12-09T08:03:53.576Z,8.40
2018-12-09T08:06:21.915Z,8.50
2018-12-09T08:08:50.405Z,8.50
2018-12-09T08:11:18.783Z,8.50
2018-12-09T08:13:47.236Z,8.60
2018-12-09T08:16:15.605Z,8.60
2018-12-09T08:18:44.051Z,8.70
2018-12-09T08:21:12.452Z,8.70
2018-12-09T08:23:40.825Z,8.70
2018-12-09T08:26:09.223Z,8.70
2018-12-09T08:28:37.593Z,8.70
2018-12-09T08:31:06.072Z,8.70
2018-12-09T08:33:34.545Z,8.70
2018-12-09T08:36:02.936Z,8.80
2018-12-09T08:38:31.304Z,8.80
2018-12-09T08:40:59.685Z,8.80
2018-12-09T08:43:28.162Z,8.80
2018-12-09T08:45:57.271Z,8.90
2018-12-09T08:48:25.843Z,8.90
2018-12-09T08:50:54.226Z,9.00
2018-12-09T08:53:22.555Z,8.90
2018-12-09T08:55:50.961Z,8.90
2018-12-09T08:58:19.355Z,8.90
2018-12-09T09:00:47.689Z,8.90
2018-12-09T09:03:16.237Z,8.80
2018-12-09T09:05:44.631Z,8.80
2018-12-09T09:08:12.993Z,8.80
2018-12-09T09:10:41.340Z,8.80
2018-12-09T09:13:09.856Z,8.80
2018-12-09T09:15:38.306Z,8.80
2018-12-09T09:18:06.698Z,8.80
2018-12-09T09:20:35.765Z,8.80
2018-12-09T09:23:04.312Z,8.90
2018-12-09T09:25:32.781Z,8.90
2018-12-09T09:28:01.251Z,8.90
2018-12-09T09:30:29.620Z,8.80
2018-12-09T09:32:58.385Z,8.80
2018-12-09T09:35:26.785Z,8.80
2018-12-09T09:37:55.508Z,8.80
2018-12-09T09:40:23.986Z,8.80
2018-12-09T09:42:52.371Z,8.90
2018-12-09T09:45:21.193Z,8.90
2018-12-09T09:47:49.537Z,8.90
2018-12-09T09:50:18.033Z,8.80
2018-12-09T09:52:46.360Z,8.80
2018-12-09T09:55:14.767Z,8.80
2018-12-09T09:57:43.149Z,8.80
2018-12-09T10:00:12.030Z,8.80
2018-12-09T10:02:40.460Z,8.80
2018-12-09T10:05:08.887Z,8.80
2018-12-09T10:07:37.385Z,8.90
2018-12-09T10:10:07.102Z,8.90
2018-12-09T10:12:35.485Z,8.90
2018-12-09T10:15:04.089Z,8.80
2018-12-09T10:17:32.566Z,8.90
2018-12-09T10:20:00.915Z,8.90
2018-12-09T10:22:29.273Z,8.90
2018-12-09T10:24:57.674Z,8.90
2018-12-09T10:27:26.187Z,9.00
2018-12-09T10:29:54.544Z,9.00
2018-12-09T10:32:23.001Z,9.10
2018-12-09T10:34:51.432Z,9.10
2018-12-09T10:37:19.868Z,9.10
2018-12-09T10:39:48.230Z,9.10
2018-12-09T10:42:16.598Z,9.10
2018-12-09T10:44:45.031Z,9.10
2018-12-09T10:47:13.804Z,9.10
2018-12-09T10:49:42.200Z,9.10
2018-12-09T10:52:10.571Z,9.10
2018-12-09T10:54:38.967Z,9.10
2018-12-09T10:57:07.339Z,9.00
2018-12-09T10:59:35.761Z,9.10
2018-12-09T11:02:09.496Z,9.10
2018-12-09T11:04:37.892Z,9.20
2018-12-09T11:07:06.348Z,9.20
2018-12-09T11:09:34.713Z,9.20
2018-12-09T11:12:03.159Z,9.20
2018-12-09T11:14:31.567Z,9.20
2018-12-09T11:16:59.975Z,9.20
2018-12-09T11:19:28.345Z,9.10
2018-12-09T11:21:56.856Z,9.10
2018-12-09T11:24:25.274Z,9.00
2018-12-09T11:26:53.735Z,8.90
2018-12-09T11:29:22.137Z,8.90
2018-12-09T11:31:50.554Z,8.80
2018-12-09T11:34:18.950Z,8.80
2018-12-09T11:36:47.631Z,8.80
2018-12-09T11:39:16.003Z,8.80
2018-12-09T11:41:44.538Z,8.90
2018-12-09T11:44:13.012Z,8.80
2018-12-09T11:46:41.708Z,8.90
2018-12-09T11:49:10.378Z,8.80
2018-12-09T11:51:39.132Z,8.90
2018-12-09T11:54:07.679Z,8.90
2018-12-09T11:56:36.269Z,9.00
2018-12-09T11:59:05.013Z,9.00
2018-12-09T12:01:33.519Z,9.00
2018-12-09T12:04:02.362Z,9.00
2018-12-09T12:06:31.015Z,9.00
2018-12-09T12:08:59.735Z,8.90
2018-12-09T12:11:28.362Z,8.90
2018-12-09T12:13:56.992Z,8.90
2018-12-09T12:16:25.669Z,8.90
2018-12-09T12:18:54.229Z,8.80
2018-12-09T12:21:22.613Z,8.80
2018-12-09T12:23:51.029Z,8.80
2018-12-09T12:26:19.975Z,8.70
2018-12-09T12:28:48.611Z,8.80
2018-12-09T12:31:17.112Z,8.70
2018-12-09T12:33:45.497Z,8.70
2018-12-09T12:36:13.912Z,8.70
2018-12-09T12:38:42.302Z,8.70
2018-12-09T12:41:10.664Z,8.70
2018-12-09T12:43:39.137Z,8.60
2018-12-09T12:46:07.632Z,8.70
2018-12-09T12:48:36.191Z,8.70
2018-12-09T12:51:04.935Z,8.60
2018-12-09T12:53:33.597Z,8.70
2018-12-09T12:56:01.980Z,8.70
2018-12-09T12:58:30.391Z,8.70
2018-12-09T13:00:58.807Z,8.70
2018-12-09T13:03:27.326Z,8.70
2018-12-09T13:05:55.749Z,8.70
2018-12-09T13:08:24.381Z,8.70
2018-12-09T13:10:53.877Z,8.70
2018-12-09T13:13:22.277Z,8.60
2018-12-09T13:15:51.082Z,8.60
2018-12-09T13:18:19.451Z,8.50
2018-12-09T13:20:47.932Z,8.50
2018-12-09T13:23:16.271Z,8.40
2018-12-09T13:25:44.744Z,8.30
2018-12-09T13:28:13.240Z,8.30
2018-12-09T13:30:41.674Z,8.20
2018-12-09T13:33:10.199Z,8.10
2018-12-09T13:35:39.739Z,8.10
2018-12-09T13:38:08.116Z,8.00
2018-12-09T13:40:36.489Z,7.90
2018-12-09T13:43:05.014Z,7.70
2018-12-09T13:45:33.561Z,7.60
2018-12-09T13:48:02.001Z,7.30
2018-12-09T13:50:30.709Z,7.20
2018-12-09T13:52:59.123Z,7.00
2018-12-09T13:55:27.491Z,6.90
2018-12-09T13:57:55.915Z,6.80
2018-12-09T14:00:24.271Z,6.80
2018-12-09T14:02:52.680Z,6.80
2018-12-09T14:05:21.439Z,6.80
2018-12-09T14:07:49.943Z,6.90
2018-12-09T14:10:18.351Z,6.90
2018-12-09T14:12:46.773Z,7.00
2018-12-09T14:15:15.226Z,7.10
2018-12-09T14:17:42.893Z,7.10
2018-12-09T14:20:11.364Z,7.20
2018-12-09T14:22:39.789Z,7.20
2018-12-09T14:25:08.450Z,7.20
2018-12-09T14:27:36.965Z,7.30
2018-12-09T14:30:06.405Z,7.30
2018-12-09T14:32:34.842Z,7.30
2018-12-09T14:35:04.040Z,7.30
2018-12-09T14:37:32.424Z,7.40
2018-12-09T14:40:00.821Z,7.40
2018-12-09T14:42:29.175Z,7.40
2018-12-09T14:44:57.582Z,7.40
2018-12-09T14:47:26.029Z,7.40
2018-12-09T14:49:54.511Z,7.50
2018-12-09T14:52:23.527Z,7.40
2018-12-09T14:54:52.182Z,7.50
2018-12-09T14:57:20.685Z,7.50
2018-12-09T14:59:49.096Z,7.60
2018-12-09T15:02:17.493Z,7.50
2018-12-09T15:04:45.862Z,7.60
2018-12-09T15:07:14.429Z,7.60
2018-12-09T15:09:43.096Z,7.60
2018-12-09T15:12:12.123Z,7.60
2018-12-09T15:14:40.529Z,7.60
2018-12-09T15:17:08.953Z,7.70
2018-12-09T15:19:37.292Z,7.70
2018-12-09T15:22:05.728Z,7.80
2018-12-09T15:24:41.170Z,7.80
2018-12-09T15:27:04.693Z,7.80
2018-12-09T15:29:33.083Z,7.80
2018-12-09T15:32:01.733Z,7.90
2018-12-09T15:34:30.195Z,7.90
2018-12-09T15:36:58.670Z,7.90
2018-12-09T15:39:27.248Z,7.90
2018-12-09T15:41:56.042Z,7.80
2018-12-09T15:44:29.768Z,7.80
2018-12-09T15:46:58.458Z,7.80
2018-12-09T15:49:28.352Z,7.80
2018-12-09T15:51:57.148Z,7.70
2018-12-09T15:54:26.137Z,7.60
2018-12-09T15:56:54.650Z,7.60
2018-12-09T15:59:23.158Z,7.60
2018-12-09T16:01:52.192Z,7.60
2018-12-09T16:04:20.568Z,7.50
2018-12-09T16:06:48.955Z,7.50
2018-12-09T16:09:17.332Z,7.60
2018-12-09T16:11:45.684Z,7.60
2018-12-09T16:14:14.085Z,7.60
2018-12-09T16:16:43.179Z,7.60
2018-12-09T16:19:11.877Z,7.60
2018-12-09T16:21:40.382Z,7.50
2018-12-09T16:24:08.736Z,7.50
2018-12-09T16:26:37.146Z,7.40
2018-12-09T16:29:05.494Z,7.40
2018-12-09T16:31:34.351Z,7.40
2018-12-09T16:34:02.681Z,7.50
2018-12-09T16:36:31.385Z,7.40
2018-12-09T16:38:59.903Z,7.40
2018-12-09T16:41:28.400Z,7.40
2018-12-09T16:43:56.756Z,7.30
2018-12-09T16:46:25.215Z,7.40
2018-12-09T16:48:53.828Z,7.40
2018-12-09T16:51:22.202Z,7.30
2018-12-09T16:53:50.649Z,7.30
2018-12-09T16:56:19.116Z,7.40
2018-12-09T16:58:47.520Z,7.40
2018-12-09T17:01:15.920Z,7.40
2018-12-09T17:03:44.303Z,7.40
2018-12-09T17:06:12.704Z,7.40
2018-12-09T17:08:41.156Z,7.40
2018-12-09T17:11:10.112Z,7.50
2018-12-09T17:13:38.975Z,7.50
2018-12-09T17:16:07.660Z,7.50
2018-12-09T17:21:15.845Z,7.50
2018-12-09T17:23:44.307Z,7.50
2018-12-09T17:26:12.692Z,7.50
2018-12-09T17:28:41.236Z,7.50
2018-12-09T17:31:09.610Z,7.50
2018-12-09T17:33:38.195Z,7.50
2018-12-09T17:36:06.571Z,7.60
2018-12-09T17:38:35.019Z,7.60
2018-12-09T17:41:03.737Z,7.60
2018-12-09T17:43:32.184Z,7.60
2018-12-09T17:46:00.520Z,7.60
2018-12-09T17:48:28.976Z,7.70
2018-12-09T17:50:57.488Z,7.70
2018-12-09T17:53:26.075Z,7.60
2018-12-09T17:55:54.625Z,7.60
2018-12-09T17:58:23.067Z,7.60
2018-12-09T18:00:51.449Z,7.50
2018-12-09T18:03:19.912Z,7.50
2018-12-09T18:05:48.492Z,7.40
2018-12-09T18:08:16.924Z,7.40
2018-12-09T18:10:45.604Z,7.50
2018-12-09T18:13:14.185Z,7.40
2018-12-09T18:15:42.870Z,7.40
2018-12-09T18:18:11.508Z,7.40
2018-12-09T18:20:40.151Z,7.50
2018-12-09T18:23:08.848Z,7.40
2018-12-09T18:25:37.540Z,7.40
2018-12-09T18:28:06.041Z,7.40
2018-12-09T18:30:34.555Z,7.40
2018-12-09T18:33:03.195Z,7.30
2018-12-09T18:35:31.767Z,7.30
2018-12-09T18:38:00.514Z,7.20
2018-12-09T18:40:29.038Z,7.20
2018-12-09T18:42:57.495Z,7.30
2018-12-09T18:45:26.274Z,7.20
2018-12-09T18:47:54.645Z,7.20
2018-12-09T18:50:23.333Z,7.20
2018-12-09T18:52:51.966Z,7.30
2018-12-09T18:55:21.053Z,7.30
2018-12-09T18:57:49.856Z,7.30
2018-12-09T19:00:18.395Z,7.30
2018-12-09T19:02:47.016Z,7.30
2018-12-09T19:05:16.028Z,7.30
2018-12-09T19:07:45.086Z,7.30
2018-12-09T19:10:13.679Z,7.40
2018-12-09T19:12:42.321Z,7.40
2018-12-09T19:15:11.317Z,7.40
2018-12-09T19:17:40.967Z,7.40
2018-12-09T19:20:09.900Z,7.40
2018-12-09T19:22:38.388Z,7.40
2018-12-09T19:25:07.508Z,7.50
2018-12-09T19:27:35.945Z,7.50
2018-12-09T19:30:04.804Z,7.60
2018-12-09T19:32:33.222Z,7.60
2018-12-09T19:35:01.596Z,7.70
2018-12-09T19:37:30.081Z,7.70
2018-12-09T19:39:58.469Z,7.60
2018-12-09T19:42:26.973Z,7.60
2018-12-09T19:44:55.644Z,7.60
2018-12-09T19:47:24.117Z,7.50
2018-12-09T19:49:52.619Z,7.50
2018-12-09T19:52:21.100Z,7.40
2018-12-09T19:54:50.536Z,7.40
2018-12-09T19:57:18.991Z,7.40
2018-12-09T19:59:47.485Z,7.30
2018-12-09T20:02:15.950Z,7.30
2018-12-09T20:04:44.568Z,7.30
2018-12-09T20:07:13.013Z,7.40
2018-12-09T20:09:41.428Z,7.40
2018-12-09T20:12:09.930Z,7.40
2018-12-09T20:14:38.468Z,7.40
2018-12-09T20:17:07.312Z,7.50
2018-12-09T20:19:35.928Z,7.50
2018-12-09T20:22:04.581Z,7.50
2018-12-09T20:24:33.211Z,7.40
2018-12-09T20:27:01.650Z,7.40
2018-12-09T20:29:30.249Z,7.40
2018-12-09T20:31:58.819Z,7.40
2018-12-09T20:34:27.406Z,7.40
2018-12-09T20:36:55.888Z,7.30
2018-12-09T20:39:24.404Z,7.40
2018-12-09T20:41:52.950Z,7.40
2018-12-09T20:44:26.237Z,7.40
2018-12-09T20:47:01.495Z,7.40
2018-12-09T20:49:30.210Z,7.40
2018-12-09T20:51:58.751Z,7.30
2018-12-09T20:54:27.365Z,7.40
2018-12-09T20:56:56.171Z,7.30
2018-12-09T20:59:24.887Z,7.40
2018-12-09T21:01:53.770Z,7.30
2018-12-09T21:04:22.325Z,7.30
2018-12-09T21:06:51.141Z,7.30
2018-12-09T21:09:20.002Z,7.20
2018-12-09T21:11:48.659Z,7.20
2018-12-09T21:14:17.302Z,7.10
2018-12-09T21:16:45.768Z,7.10
2018-12-09T21:19:14.217Z,7.00
2018-12-09T21:21:42.732Z,7.00
2018-12-09T21:24:11.763Z,6.80
2018-12-09T21:26:40.366Z,6.80
2018-12-09T21:29:09.241Z,6.80
2018-12-09T21:31:37.871Z,6.70
2018-12-09T21:34:06.630Z,6.80
2018-12-09T21:36:35.266Z,6.80
2018-12-09T21:39:05.488Z,6.80
2018-12-09T21:41:33.991Z,6.90
2018-12-09T21:44:02.597Z,6.90
2018-12-09T21:46:31.007Z,6.90
2018-12-09T21:48:59.791Z,6.80
2018-12-09T21:51:28.302Z,6.90
2018-12-09T21:53:56.772Z,6.90
2018-12-09T21:56:25.402Z,6.90
2018-12-09T21:58:54.085Z,7.00
2018-12-09T22:01:22.815Z,6.90
2018-12-09T22:03:52.038Z,7.00
2018-12-09T22:06:23.833Z,7.00
2018-12-09T22:08:52.346Z,7.00
2018-12-09T22:11:21.110Z,6.90
2018-12-09T22:13:49.813Z,6.90
2018-12-09T22:16:18.625Z,6.80
2018-12-09T22:18:47.777Z,6.80
2018-12-09T22:21:16.606Z,6.90
2018-12-09T22:23:45.419Z,6.80
2018-12-09T22:26:14.218Z,6.90
2018-12-09T22:28:43.095Z,6.80
2018-12-09T22:31:11.705Z,6.90
2018-12-09T22:33:40.372Z,6.90
2018-12-09T22:36:09.530Z,6.90
2018-12-09T22:38:38.202Z,6.90
2018-12-09T22:41:07.558Z,6.90
2018-12-09T22:43:36.510Z,6.90
2018-12-09T22:46:05.331Z,6.90
2018-12-09T22:48:34.101Z,6.90
2018-12-09T22:51:02.845Z,7.00
2018-12-09T22:53:31.639Z,7.00
2018-12-09T22:56:00.227Z,7.00
2018-12-09T22:58:28.732Z,7.00
2018-12-09T23:01:02.741Z,7.00
2018-12-09T23:03:31.509Z,7.00
2018-12-09T23:06:00.660Z,6.90
2018-12-09T23:08:29.664Z,6.90
2018-12-09T23:10:58.447Z,6.90
2018-12-09T23:13:27.245Z,6.80
2018-12-09T23:15:56.162Z,6.90
2018-12-09T23:18:26.635Z,6.90
2018-12-09T23:20:55.476Z,6.90
2018-12-09T23:23:24.162Z,6.80
2018-12-09T23:25:52.748Z,6.90
2018-12-09T23:28:21.547Z,6.90
2018-12-09T23:30:50.231Z,6.90
2018-12-09T23:33:19.068Z,6.90
2018-12-09T23:35:47.728Z,6.90
2018-12-09T23:38:16.540Z,6.90
2018-12-09T23:40:45.328Z,6.90
2018-12-09T23:43:14.274Z,6.90
2018-12-09T23:45:42.769Z,6.80
2018-12-09T23:48:11.346Z,6.80
2018-12-09T23:50:39.819Z,6.80
2018-12-09T23:53:08.304Z,6.80
2018-12-09T23:55:36.892Z,6.80
2018-12-09T23:58:05.352Z,6.90
